Time;durP1;ratioP1;P1;durP2;ratioP2;P2;SDS_P1;SDS_P2;PMS_P1;PMS_P2;Temp;Humidity;BMP_temperature;BMP_pressure;BME280_temperature;BME280_humidity;BME280_pressure;Samples;Min_cycle;Max_cycle;Signal;HPM_P1;HPM_P2
2022/12/12 00:02:03;;;;;;;0.50;0.40;;;1.30;99.90;;;;;;5072896;28;20273;-76
2022/12/12 00:04:31;;;;;;;2.00;1.80;;;1.40;99.90;;;;;;5064986;28;20210;-76
2022/12/12 00:06:58;;;;;;;0.50;0.40;;;1.40;99.90;;;;;;5063635;28;20283;-76
2022/12/12 00:09:25;;;;;;;0.50;0.40;;;1.40;99.90;;;;;;5070748;28;20194;-76
2022/12/12 00:11:51;;;;;;;0.50;0.45;;;1.40;99.90;;;;;;5072690;28;20423;-76
2022/12/12 00:14:18;;;;;;;0.50;0.40;;;1.40;99.90;;;;;;5071507;28;20218;-76
2022/12/12 00:16:45;;;;;;;0.50;0.50;;;1.40;99.90;;;;;;5072196;28;20563;-76
2022/12/12 00:19:12;;;;;;;0.50;0.40;;;1.30;99.90;;;;;;5072322;28;20200;-77
2022/12/12 00:21:40;;;;;;;0.50;0.40;;;1.30;99.90;;;;;;5071503;28;20678;-76
2022/12/12 00:24:07;;;;;;;0.50;0.50;;;1.30;99.90;;;;;;5071255;28;20228;-76
2022/12/12 00:26:35;;;;;;;0.50;0.40;;;1.30;99.90;;;;;;5072456;28;20196;-76
2022/12/12 00:29:03;;;;;;;1.45;1.45;;;1.30;99.90;;;;;;5072074;28;20200;-76
2022/12/12 00:31:30;;;;;;;0.50;0.50;;;1.30;99.90;;;;;;5071830;28;20217;-76
2022/12/12 00:33:57;;;;;;;2.55;2.45;;;1.40;99.90;;;;;;5069652;28;20771;-76
2022/12/12 00:36:26;;;;;;;0.50;0.50;;;1.40;99.90;;;;;;5058070;28;20194;-76
2022/12/12 00:38:55;;;;;;;1.30;1.27;;;1.40;99.90;;;;;;5032097;28;20294;-76
2022/12/12 00:41:22;;;;;;;3.60;3.30;;;1.40;99.90;;;;;;5031841;28;20278;-76
2022/12/12 00:43:50;;;;;;;0.57;0.55;;;1.50;99.90;;;;;;5031610;28;20258;-76
2022/12/12 00:46:19;;;;;;;0.50;0.40;;;1.40;99.90;;;;;;5031448;28;20759;-75
2022/12/12 00:48:46;;;;;;;0.50;0.40;;;1.30;99.90;;;;;;5031628;28;20195;-76
2022/12/12 00:51:16;;;;;;;0.50;0.40;;;1.30;99.90;;;;;;5031847;28;20195;-76
2022/12/12 00:53:44;;;;;;;0.50;0.40;;;1.40;99.90;;;;;;5031790;28;20309;-76
2022/12/12 00:56:14;;;;;;;0.50;0.50;;;1.30;99.90;;;;;;5031233;28;20221;-76
2022/12/12 00:58:41;;;;;;;0.50;0.40;;;1.40;99.90;;;;;;5031929;28;20187;-75
2022/12/12 01:01:10;;;;;;;1.15;1.15;;;1.40;99.90;;;;;;5031083;28;20222;-74
2022/12/12 01:03:39;;;;;;;0.50;0.40;;;1.40;99.90;;;;;;5031818;28;20242;-75
2022/12/12 01:06:06;;;;;;;0.50;0.40;;;1.40;99.90;;;;;;5057714;28;20193;-75
2022/12/12 01:08:33;;;;;;;0.50;0.40;;;1.40;99.90;;;;;;5068505;28;20198;-75
2022/12/12 01:11:00;;;;;;;0.50;0.50;;;1.30;99.90;;;;;;5070273;28;20700;-75
2022/12/12 01:13:29;;;;;;;0.50;0.47;;;1.30;99.90;;;;;;5071238;28;20272;-76
2022/12/12 01:15:55;;;;;;;0.50;0.40;;;1.30;99.90;;;;;;5070991;28;20193;-77
2022/12/12 01:18:22;;;;;;;0.50;0.40;;;1.30;99.90;;;;;;5071565;28;20201;-76
2022/12/12 01:20:49;;;;;;;0.50;0.50;;;1.40;99.90;;;;;;5070632;28;20204;-76
2022/12/12 01:23:16;;;;;;;5.28;3.05;;;1.40;99.90;;;;;;5071218;28;20193;-76
2022/12/12 01:25:43;;;;;;;0.50;0.40;;;1.40;99.90;;;;;;5070759;28;20193;-76
2022/12/12 01:28:10;;;;;;;0.50;0.40;;;1.40;99.90;;;;;;5071545;28;20221;-76
2022/12/12 01:30:38;;;;;;;0.50;0.45;;;1.40;99.90;;;;;;5071156;28;20203;-77
2022/12/12 01:33:05;;;;;;;0.50;0.40;;;1.40;99.90;;;;;;5070693;28;20350;-76
2022/12/12 01:35:33;;;;;;;0.50;0.40;;;1.40;99.90;;;;;;5063851;28;20213;-76
2022/12/12 01:38:00;;;;;;;0.63;0.63;;;1.40;99.90;;;;;;5064155;28;20194;-77
2022/12/12 01:40:29;;;;;;;0.50;0.40;;;1.50;99.90;;;;;;5071289;28;20197;-76
2022/12/12 01:42:56;;;;;;;0.88;0.88;;;1.50;99.90;;;;;;5070999;28;20735;-76
2022/12/12 01:46:01;;;;;;;0.63;0.63;;;1.50;99.90;;;;;;5070245;28;20749;-77
2022/12/12 01:48:34;;;;;;;0.50;0.40;;;1.50;99.90;;;;;;5071155;28;20208;-76
2022/12/12 01:51:04;;;;;;;0.50;0.40;;;1.50;99.90;;;;;;5071069;28;20586;-76
2022/12/12 01:53:32;;;;;;;0.50;0.40;;;1.40;99.90;;;;;;5071087;28;20295;-76
2022/12/12 01:56:02;;;;;;;0.50;0.50;;;1.40;99.90;;;;;;5070241;28;20194;-76
2022/12/12 01:58:30;;;;;;;0.50;0.40;;;1.40;99.90;;;;;;5070911;28;20624;-76
2022/12/12 02:00:57;;;;;;;0.50;0.40;;;1.40;99.90;;;;;;5070692;28;20208;-76
2022/12/12 02:03:24;;;;;;;0.50;0.40;;;1.40;99.90;;;;;;5070681;28;20312;-76
2022/12/12 02:05:57;;;;;;;0.50;0.40;;;1.50;99.90;;;;;;5061258;28;20281;-76
2022/12/12 02:08:25;;;;;;;0.50;0.40;;;1.50;99.90;;;;;;5066970;28;20764;-76
2022/12/12 02:10:52;;;;;;;0.50;0.40;;;1.50;99.90;;;;;;5069887;28;20301;-77
2022/12/12 02:13:22;;;;;;;0.50;0.40;;;1.40;99.90;;;;;;5074500;28;20300;-76
2022/12/12 02:16:05;;;;;;;0.60;0.50;;;1.50;99.90;;;;;;5074197;28;20200;-76
2022/12/12 02:18:41;;;;;;;0.50;0.40;;;1.40;99.90;;;;;;5074635;28;20204;-76
2022/12/12 02:21:17;;;;;;;0.50;0.40;;;1.40;99.90;;;;;;5074355;28;20301;-76
2022/12/12 02:24:32;;;;;;;0.50;0.47;;;1.40;99.90;;;;;;5074438;28;20308;-75
2022/12/12 02:27:29;;;;;;;0.50;0.40;;;1.40;99.90;;;;;;5127766;22;20304;-80
2022/12/12 02:30:09;;;;;;;0.50;0.40;;;1.40;99.90;;;;;;5070135;28;20283;-79
2022/12/12 02:33:07;;;;;;;0.50;0.40;;;1.40;99.90;;;;;;5077860;28;20240;-80
2022/12/12 02:35:46;;;;;;;0.50;0.40;;;1.30;99.90;;;;;;5074162;28;20273;-80
2022/12/12 02:38:21;;;;;;;0.50;0.40;;;1.30;99.90;;;;;;5075139;28;20548;-80
2022/12/12 02:40:56;;;;;;;0.50;0.40;;;1.30;99.90;;;;;;5077681;28;20195;-80
2022/12/12 02:43:31;;;;;;;0.50;0.40;;;1.30;99.90;;;;;;5078621;28;20289;-80
2022/12/12 02:46:03;;;;;;;0.50;0.40;;;1.40;99.90;;;;;;5078249;28;20178;-80
2022/12/12 02:48:36;;;;;;;0.50;0.40;;;1.40;99.90;;;;;;5078581;28;20241;-75
2022/12/12 02:51:07;;;;;;;0.50;0.40;;;1.40;99.90;;;;;;5075292;28;20665;-80
2022/12/12 02:53:34;;;;;;;2.25;2.15;;;1.40;99.90;;;;;;5075398;28;20694;-79
2022/12/12 02:56:03;;;;;;;0.50;0.40;;;1.40;99.90;;;;;;5075123;28;20746;-79
2022/12/12 02:58:31;;;;;;;0.57;0.57;;;1.50;99.90;;;;;;5083113;28;20213;-78
2022/12/12 03:01:10;;;;;;;0.50;0.50;;;1.50;99.90;;;;;;5087437;28;20189;-79
2022/12/12 03:09:44;;;;;;;1.15;1.15;;;1.40;99.90;;;;;;5094112;28;20176;-80
2022/12/12 03:12:17;;;;;;;1.77;1.52;;;1.50;99.90;;;;;;5094890;28;20236;-79
2022/12/12 03:14:53;;;;;;;0.60;0.60;;;1.50;99.90;;;;;;5094696;28;20322;-80
2022/12/12 03:17:27;;;;;;;0.88;0.88;;;1.40;99.90;;;;;;5094787;28;20231;-79
2022/12/12 03:20:00;;;;;;;0.50;0.40;;;1.50;99.90;;;;;;5094761;28;20184;-81
2022/12/12 03:22:32;;;;;;;2.20;2.10;;;1.50;99.90;;;;;;5095278;28;20180;-80
2022/12/12 03:25:06;;;;;;;1.50;1.50;;;1.50;99.90;;;;;;5093879;28;20288;-79
2022/12/12 03:27:37;;;;;;;3.17;3.08;;;1.40;99.90;;;;;;5087909;28;20228;-79
2022/12/12 03:30:08;;;;;;;2.00;1.83;;;1.40;99.90;;;;;;5086000;28;20196;-78
2022/12/12 03:32:42;;;;;;;2.80;2.67;;;1.40;99.90;;;;;;5094704;28;20228;-77
2022/12/12 03:35:14;;;;;;;0.50;0.40;;;1.30;99.90;;;;;;5093181;28;20184;-79
2022/12/12 03:37:47;;;;;;;0.50;0.50;;;1.40;99.90;;;;;;5093298;28;20262;-79
2022/12/12 03:40:21;;;;;;;0.50;0.40;;;1.30;99.90;;;;;;5093482;28;20277;-79
2022/12/12 03:42:54;;;;;;;2.25;2.17;;;1.30;99.90;;;;;;5092891;28;20265;-79
2022/12/12 03:45:26;;;;;;;0.50;0.40;;;1.30;99.90;;;;;;5092610;28;20212;-79
2022/12/12 03:47:58;;;;;;;1.08;1.08;;;1.30;99.90;;;;;;5093360;28;20213;-79
2022/12/12 03:50:31;;;;;;;1.48;1.48;;;1.30;99.90;;;;;;5092991;28;20275;-78
2022/12/12 03:53:03;;;;;;;0.50;0.50;;;1.30;99.90;;;;;;5093314;28;20634;-80
2022/12/12 03:55:38;;;;;;;0.60;0.60;;;1.30;99.90;;;;;;5092421;28;20174;-77
2022/12/12 03:58:13;;;;;;;0.50;0.40;;;1.20;99.90;;;;;;5086230;28;20215;-79
2022/12/12 04:00:42;;;;;;;2.35;2.15;;;1.20;99.90;;;;;;5084678;28;20185;-78
2022/12/12 04:03:15;;;;;;;1.40;1.40;;;1.20;99.90;;;;;;5092971;28;20622;-78
2022/12/12 04:08:33;;;;;;;0.60;0.60;;;1.10;99.90;;;;;;5083193;28;20217;-78
2022/12/12 04:14:02;;;;;;;0.98;0.98;;;1.10;99.90;;;;;;5093026;28;20286;-77
2022/12/12 04:16:35;;;;;;;1.60;1.20;;;1.10;99.90;;;;;;5093594;28;20589;-78
2022/12/12 04:19:09;;;;;;;0.50;0.50;;;1.10;99.90;;;;;;5093281;28;20216;-79
2022/12/12 04:24:33;;;;;;;0.50;0.40;;;0.90;99.90;;;;;;5092845;28;20637;-79
2022/12/12 04:27:05;;;;;;;0.50;0.50;;;0.90;99.90;;;;;;5092984;28;20303;-79
2022/12/12 04:29:38;;;;;;;1.35;1.27;;;0.90;99.90;;;;;;5093546;28;20209;-74
2022/12/12 04:32:13;;;;;;;0.50;0.40;;;0.90;99.90;;;;;;5092973;28;20639;-79
2022/12/12 04:34:45;;;;;;;0.52;0.47;;;0.80;99.90;;;;;;5089965;28;20192;-75
2022/12/12 04:37:17;;;;;;;0.50;0.40;;;0.80;99.90;;;;;;5081037;28;20213;-79
2022/12/12 04:39:49;;;;;;;0.50;0.50;;;0.70;99.90;;;;;;5092126;28;20218;-78
2022/12/12 04:42:21;;;;;;;0.50;0.47;;;0.60;99.90;;;;;;5094922;28;20216;-79
2022/12/12 04:44:51;;;;;;;3.10;2.80;;;0.50;99.90;;;;;;5092440;28;20207;-79
2022/12/12 04:47:20;;;;;;;1.67;1.58;;;0.50;99.90;;;;;;5092868;28;20217;-78
2022/12/12 04:49:49;;;;;;;10.93;6.70;;;0.50;99.90;;;;;;5092423;28;20281;-79
2022/12/12 04:52:20;;;;;;;0.50;0.50;;;0.50;99.90;;;;;;5092898;28;20554;-80
2022/12/12 04:54:52;;;;;;;0.55;0.52;;;0.40;99.90;;;;;;5092331;28;20920;-78
2022/12/12 04:57:26;;;;;;;1.13;1.13;;;0.20;99.90;;;;;;5092383;28;20252;-79
2022/12/12 04:59:53;;;;;;;1.45;1.35;;;0.10;99.90;;;;;;5092749;28;20733;-80
2022/12/12 05:02:27;;;;;;;0.50;0.40;;;0.10;99.90;;;;;;5092849;28;20232;-79
2022/12/12 05:04:58;;;;;;;2.55;2.45;;;0.00;99.90;;;;;;5088095;28;20200;-79
2022/12/12 05:07:33;;;;;;;0.50;0.50;;;-0.10;99.90;;;;;;5080378;28;20224;-79
2022/12/12 05:10:00;;;;;;;4.90;3.22;;;-0.10;99.90;;;;;;5051690;28;20269;-79
2022/12/12 05:12:27;;;;;;;0.50;0.40;;;-0.10;99.90;;;;;;5052262;28;20193;-78
2022/12/12 05:14:54;;;;;;;0.50;0.40;;;0.00;99.90;;;;;;5051517;28;20671;-79
2022/12/12 05:17:28;;;;;;;3.10;2.35;;;-0.10;99.90;;;;;;5052539;28;20241;-77
2022/12/12 05:19:56;;;;;;;4.72;2.55;;;-0.10;99.90;;;;;;5052343;28;20192;-79
2022/12/12 05:22:23;;;;;;;1.10;1.08;;;0.00;99.90;;;;;;5052514;28;20212;-79
2022/12/12 05:24:51;;;;;;;0.50;0.40;;;0.00;99.90;;;;;;5051741;28;20208;-79
2022/12/12 05:27:18;;;;;;;0.50;0.40;;;-0.10;99.90;;;;;;5051777;28;20225;-77
2022/12/12 05:29:45;;;;;;;0.50;0.40;;;-0.10;99.90;;;;;;5052075;28;20222;-80
2022/12/12 05:32:11;;;;;;;1.17;1.17;;;-0.10;99.90;;;;;;5052078;28;20198;-79
2022/12/12 05:34:38;;;;;;;0.77;0.75;;;-0.10;99.90;;;;;;5052719;28;20221;-77
2022/12/12 05:37:05;;;;;;;1.08;1.08;;;0.00;99.90;;;;;;5080424;28;20304;-80
2022/12/12 05:39:32;;;;;;;3.15;3.05;;;0.00;99.90;;;;;;5089374;28;20193;-76
2022/12/12 05:42:00;;;;;;;0.50;0.40;;;0.10;99.90;;;;;;5091871;28;20216;-79
2022/12/12 05:44:27;;;;;;;0.50;0.50;;;0.20;99.90;;;;;;5091428;28;20199;-78
2022/12/12 05:46:54;;;;;;;1.05;1.05;;;0.20;99.90;;;;;;5094099;28;20582;-79
2022/12/12 05:49:21;;;;;;;1.50;1.40;;;0.20;99.90;;;;;;5096462;28;20195;-78
2022/12/12 05:51:48;;;;;;;1.42;1.40;;;0.30;99.90;;;;;;5096321;28;20197;-79
2022/12/12 05:54:14;;;;;;;0.60;0.60;;;0.30;99.90;;;;;;5095631;28;20327;-79
2022/12/12 05:56:41;;;;;;;2.30;2.15;;;0.40;99.90;;;;;;5096091;28;20562;-79
2022/12/12 05:59:09;;;;;;;4.63;1.50;;;0.40;99.90;;;;;;5095983;28;20200;-79
2022/12/12 06:01:36;;;;;;;1.58;1.48;;;0.50;99.90;;;;;;5096425;28;20280;-76
2022/12/12 06:04:03;;;;;;;1.55;1.45;;;0.50;99.90;;;;;;5095187;28;20186;-79
2022/12/12 06:06:30;;;;;;;0.50;0.40;;;0.60;99.90;;;;;;5087809;28;20189;-78
2022/12/12 06:08:57;;;;;;;1.95;1.85;;;0.60;99.90;;;;;;5086837;28;20196;-78
2022/12/12 06:11:24;;;;;;;0.73;0.73;;;0.60;99.90;;;;;;5096571;28;20279;-79
2022/12/12 06:13:51;;;;;;;7.63;1.83;;;0.60;99.90;;;;;;5095941;28;20331;-78
2022/12/12 06:16:19;;;;;;;2.08;1.98;;;0.60;99.90;;;;;;5096010;28;20199;-78
2022/12/12 06:18:50;;;;;;;2.22;2.05;;;0.60;99.90;;;;;;5095846;28;20217;-79
2022/12/12 06:21:17;;;;;;;1.98;1.85;;;0.70;99.90;;;;;;5095886;28;20272;-79
2022/12/12 06:23:44;;;;;;;2.80;2.65;;;0.70;99.90;;;;;;5095814;28;20279;-77
2022/12/12 06:26:13;;;;;;;0.52;0.52;;;0.80;99.90;;;;;;5095006;28;20659;-78
2022/12/12 06:28:40;;;;;;;1.15;1.05;;;0.80;99.90;;;;;;5095588;28;20217;-78
2022/12/12 06:31:09;;;;;;;0.70;0.65;;;0.80;99.90;;;;;;5096031;28;20227;-80
2022/12/12 06:33:38;;;;;;;11.95;2.97;;;0.80;99.90;;;;;;5095922;28;20337;-79
2022/12/12 06:36:08;;;;;;;0.82;0.82;;;0.80;99.90;;;;;;5086568;28;20193;-79
2022/12/12 06:38:36;;;;;;;0.60;0.60;;;0.80;99.90;;;;;;5087791;28;20216;-77
2022/12/12 06:41:06;;;;;;;1.90;1.80;;;0.90;99.90;;;;;;5096306;28;20197;-79
2022/12/12 06:43:33;;;;;;;3.92;3.22;;;0.90;99.90;;;;;;5094982;28;20185;-79
2022/12/12 06:46:02;;;;;;;3.80;3.60;;;0.90;99.90;;;;;;5095313;28;20193;-79
2022/12/12 06:48:29;;;;;;;2.88;2.30;;;0.90;99.90;;;;;;5095342;28;20231;-79
2022/12/12 06:50:58;;;;;;;2.35;2.25;;;0.90;99.90;;;;;;5095770;28;20296;-80
2022/12/12 06:53:24;;;;;;;0.50;0.50;;;0.80;99.90;;;;;;5094931;28;20547;-80
2022/12/12 06:55:51;;;;;;;1.35;1.35;;;0.80;99.90;;;;;;5094761;28;20194;-79
2022/12/12 06:58:18;;;;;;;5.47;4.22;;;0.80;99.90;;;;;;5094084;28;20796;-79
2022/12/12 07:00:49;;;;;;;3.35;3.15;;;0.90;99.90;;;;;;5095408;28;20236;-78
2022/12/12 07:03:16;;;;;;;0.57;0.57;;;0.90;99.90;;;;;;5095144;28;20262;-77
2022/12/12 07:05:44;;;;;;;0.93;0.90;;;0.80;99.90;;;;;;5086169;28;20559;-78
2022/12/12 07:08:13;;;;;;;1.45;1.45;;;0.90;99.90;;;;;;5085861;28;20296;-81
2022/12/12 07:10:40;;;;;;;3.33;2.90;;;0.80;99.90;;;;;;5094474;28;20193;-79
2022/12/12 07:13:07;;;;;;;0.70;0.70;;;0.80;99.90;;;;;;5095164;28;20617;-78
2022/12/12 07:15:34;;;;;;;1.50;1.40;;;0.80;99.90;;;;;;5094595;28;20196;-78
2022/12/12 07:18:00;;;;;;;1.98;1.80;;;0.80;99.90;;;;;;5095296;28;20303;-77
2022/12/12 07:20:27;;;;;;;2.15;2.05;;;0.80;99.90;;;;;;5094983;28;20207;-77
2022/12/12 07:22:54;;;;;;;3.78;3.55;;;0.80;99.90;;;;;;5093621;28;20207;-78
2022/12/12 07:25:22;;;;;;;7.70;7.13;;;0.70;99.90;;;;;;5092862;28;20192;-78
2022/12/12 07:27:49;;;;;;;0.77;0.77;;;0.70;99.90;;;;;;5093258;28;20243;-78
2022/12/12 07:30:16;;;;;;;2.22;2.03;;;0.80;99.90;;;;;;5093534;28;20201;-77
2022/12/12 07:32:43;;;;;;;3.45;3.15;;;0.80;99.90;;;;;;5093687;28;20193;-76
2022/12/12 07:35:10;;;;;;;1.15;1.05;;;0.80;99.90;;;;;;5086605;28;20221;-78
2022/12/12 07:37:37;;;;;;;6.45;5.80;;;0.90;99.90;;;;;;5082980;28;20267;-79
2022/12/12 07:40:05;;;;;;;6.57;6.22;;;0.90;99.90;;;;;;5093683;28;20196;-78
2022/12/12 07:42:33;;;;;;;0.90;0.90;;;0.90;99.90;;;;;;5093453;28;20287;-78
2022/12/12 07:45:00;;;;;;;3.63;2.90;;;0.90;99.90;;;;;;5092560;28;20292;-78
2022/12/12 07:47:27;;;;;;;27.00;2.97;;;0.90;99.90;;;;;;5093526;28;20247;-78
2022/12/12 07:49:54;;;;;;;5.03;4.68;;;0.90;99.90;;;;;;5093391;28;20197;-77
2022/12/12 07:52:21;;;;;;;2.45;2.25;;;0.90;99.90;;;;;;5093589;28;20201;-77
2022/12/12 07:54:47;;;;;;;2.00;1.90;;;0.80;99.90;;;;;;5092304;28;20582;-78
2022/12/12 07:57:14;;;;;;;3.97;3.78;;;0.80;99.90;;;;;;5093192;28;20212;-79
2022/12/12 07:59:43;;;;;;;2.53;2.42;;;0.80;99.90;;;;;;5092804;28;20197;-78
2022/12/12 08:02:10;;;;;;;0.50;0.40;;;0.80;99.90;;;;;;5093154;28;20199;-77
2022/12/12 08:04:37;;;;;;;0.50;0.50;;;0.80;99.90;;;;;;5090690;28;20197;-77
2022/12/12 08:07:03;;;;;;;0.90;0.90;;;0.80;99.90;;;;;;5080328;28;20633;-78
2022/12/12 08:09:30;;;;;;;0.50;0.40;;;0.80;99.90;;;;;;5078337;28;20193;-78
2022/12/12 08:11:58;;;;;;;0.50;0.40;;;0.80;99.90;;;;;;5092978;28;20197;-79
2022/12/12 08:14:25;;;;;;;3.17;3.03;;;0.80;99.90;;;;;;5091773;28;20208;-77
2022/12/12 08:16:53;;;;;;;0.50;0.40;;;0.90;99.90;;;;;;5092753;28;20303;-79
2022/12/12 08:19:20;;;;;;;2.65;1.85;;;1.00;99.90;;;;;;5092735;28;20200;-80
2022/12/12 08:21:46;;;;;;;0.50;0.40;;;1.00;99.90;;;;;;5076128;28;20191;-78
2022/12/12 08:24:15;;;;;;;2.70;2.50;;;1.00;99.90;;;;;;5078947;28;20684;-76
2022/12/12 08:26:43;;;;;;;0.50;0.40;;;1.00;99.90;;;;;;5077941;28;20213;-80
2022/12/12 08:29:10;;;;;;;1.30;1.20;;;1.00;99.90;;;;;;5079682;28;20300;-78
2022/12/12 08:31:38;;;;;;;0.50;0.40;;;1.00;99.90;;;;;;5073927;28;20544;-78
2022/12/12 08:34:06;;;;;;;2.35;2.25;;;1.10;99.90;;;;;;5080050;28;20236;-78
2022/12/12 08:36:35;;;;;;;0.50;0.40;;;1.10;99.90;;;;;;5084068;28;20185;-78
2022/12/12 08:39:05;;;;;;;1.33;1.25;;;1.10;99.90;;;;;;5092671;28;20197;-77
2022/12/12 08:41:33;;;;;;;0.98;0.98;;;1.10;99.90;;;;;;5092502;28;20196;-78
2022/12/12 08:44:00;;;;;;;2.40;1.83;;;1.00;99.90;;;;;;5092108;28;20283;-78
2022/12/12 08:46:27;;;;;;;1.95;1.85;;;1.00;99.90;;;;;;5092751;28;20257;-77
2022/12/12 08:48:54;;;;;;;0.88;0.88;;;1.00;99.90;;;;;;5088451;28;20597;-79
2022/12/12 08:51:22;;;;;;;2.10;2.00;;;1.00;99.90;;;;;;5085549;28;20618;-78
2022/12/12 08:53:51;;;;;;;0.50;0.40;;;1.10;99.90;;;;;;5093860;28;20289;-77
2022/12/12 08:56:19;;;;;;;1.60;1.50;;;1.00;99.90;;;;;;5092974;28;20254;-79
2022/12/12 08:58:47;;;;;;;4.75;4.32;;;1.10;99.90;;;;;;5090063;28;20220;-78
2022/12/12 09:01:16;;;;;;;0.50;0.40;;;1.10;99.90;;;;;;5081700;28;20273;-78
2022/12/12 09:03:43;;;;;;;3.83;3.40;;;1.20;99.90;;;;;;5093459;28;20189;-76
2022/12/12 09:06:10;;;;;;;12.60;4.68;;;1.30;99.90;;;;;;5094447;28;20200;-77
2022/12/12 09:08:39;;;;;;;1.92;1.75;;;1.30;99.90;;;;;;5095684;28;20348;-78
2022/12/12 09:11:06;;;;;;;10.27;6.20;;;1.20;99.90;;;;;;5095257;28;20209;-79
2022/12/12 09:13:33;;;;;;;5.03;3.03;;;1.20;99.90;;;;;;5095316;28;20221;-78
2022/12/12 09:16:00;;;;;;;12.95;11.18;;;1.20;99.90;;;;;;5093308;28;20284;-77
2022/12/12 09:18:27;;;;;;;1.88;1.63;;;1.10;99.90;;;;;;5092160;28;20213;-78
2022/12/12 09:20:56;;;;;;;0.50;0.50;;;1.10;99.90;;;;;;5092117;28;20638;-78
2022/12/12 09:23:24;;;;;;;2.55;2.35;;;1.20;99.90;;;;;;5081230;28;20231;-78
2022/12/12 09:25:53;;;;;;;0.57;0.57;;;1.30;99.90;;;;;;5090701;28;20181;-78
2022/12/12 09:28:21;;;;;;;2.65;1.73;;;1.40;99.90;;;;;;5091636;28;20308;-76
2022/12/12 09:30:49;;;;;;;8.85;6.07;;;1.50;99.90;;;;;;5091896;28;20195;-77
2022/12/12 09:33:17;;;;;;;11.20;7.10;;;1.50;99.90;;;;;;5091681;28;20193;-77
2022/12/12 09:35:44;;;;;;;2.65;2.45;;;1.50;99.90;;;;;;5091008;28;20246;-75
2022/12/12 09:38:11;;;;;;;6.25;5.53;;;1.50;99.90;;;;;;5084865;28;20209;-78
2022/12/12 09:40:46;;;;;;;5.20;3.55;;;1.50;99.90;;;;;;5082776;28;20250;-75
2022/12/12 09:43:19;;;;;;;1.02;1.02;;;1.50;99.90;;;;;;5091883;28;20180;-76
2022/12/12 09:45:47;;;;;;;3.38;3.28;;;1.60;99.90;;;;;;5091229;28;20185;-78
2022/12/12 09:48:23;;;;;;;3.33;2.35;;;1.80;99.90;;;;;;5095132;28;20715;-78
2022/12/12 09:50:50;;;;;;;2.42;2.33;;;1.90;99.90;;;;;;5089966;28;20208;-79
2022/12/12 09:53:21;;;;;;;3.45;3.13;;;2.30;99.90;;;;;;5090864;28;20200;-82
2022/12/12 09:55:55;;;;;;;7.30;3.25;;;2.60;99.90;;;;;;5090106;28;20278;-80
2022/12/12 09:58:28;;;;;;;2.70;1.95;;;2.90;99.90;;;;;;5091464;28;20279;-78
2022/12/12 10:01:03;;;;;;;3.65;3.38;;;3.60;99.90;;;;;;5091344;28;20174;-78
2022/12/12 10:03:44;;;;;;;5.57;4.50;;;4.10;99.90;;;;;;5091417;28;20200;-78
2022/12/12 10:06:12;;;;;;;3.45;2.90;;;4.00;99.90;;;;;;5090779;28;20188;-78
2022/12/12 10:08:49;;;;;;;8.48;3.85;;;3.90;99.90;;;;;;5084407;28;20213;-78
2022/12/12 10:14:13;;;;;;;0.50;0.50;;;4.10;99.90;;;;;;5090039;28;20264;-79
2022/12/12 10:16:40;;;;;;;0.50;0.40;;;4.00;99.90;;;;;;5091201;28;20200;-77
2022/12/12 10:19:14;;;;;;;2.25;2.00;;;4.00;99.90;;;;;;5091410;28;20236;-77
2022/12/12 10:21:41;;;;;;;0.60;0.60;;;4.00;99.90;;;;;;5080912;28;20208;-78
2022/12/12 10:24:19;;;;;;;1.58;1.42;;;4.10;99.90;;;;;;5083826;28;20616;-80
2022/12/12 10:26:45;;;;;;;1.77;1.65;;;4.50;99.90;;;;;;5090939;28;20203;-78
2022/12/12 10:29:18;;;;;;;1.45;1.35;;;4.80;99.90;;;;;;5090901;28;20243;-79
2022/12/12 10:31:54;;;;;;;5.38;2.83;;;5.10;99.90;;;;;;5091290;28;20178;-79
2022/12/12 10:34:33;;;;;;;2.13;2.03;;;5.30;99.90;;;;;;5094199;28;20204;-77
2022/12/12 10:37:14;;;;;;;2.15;1.13;;;5.40;99.90;;;;;;5091541;28;20348;-77
2022/12/12 10:39:54;;;;;;;0.90;0.90;;;5.40;99.90;;;;;;5084438;28;20190;-77
2022/12/12 10:42:26;;;;;;;0.50;0.50;;;5.60;99.90;;;;;;5094832;28;20269;-78
2022/12/12 10:45:05;;;;;;;3.20;3.10;;;5.80;99.90;;;;;;5093693;28;20616;-80
2022/12/12 10:47:33;;;;;;;1.52;1.52;;;6.10;99.90;;;;;;5094632;28;20303;-74
2022/12/12 10:50:13;;;;;;;0.80;0.80;;;6.10;99.90;;;;;;5092308;28;20655;-78
2022/12/12 10:52:40;;;;;;;0.80;0.80;;;6.10;99.90;;;;;;5094246;28;20209;-74
2022/12/12 10:55:17;;;;;;;1.55;1.45;;;6.10;99.90;;;;;;5094004;28;20689;-79
2022/12/12 10:57:44;;;;;;;0.50;0.50;;;6.00;99.90;;;;;;5094582;28;20220;-79
2022/12/12 11:00:25;;;;;;;1.90;1.70;;;5.80;99.90;;;;;;5094879;28;20221;-79
2022/12/12 11:02:52;;;;;;;1.15;1.15;;;5.80;99.90;;;;;;5094542;28;20177;-79
2022/12/12 11:05:23;;;;;;;0.85;0.85;;;5.80;99.90;;;;;;5093390;28;20406;-78
2022/12/12 11:08:00;;;;;;;3.33;3.13;;;5.70;99.90;;;;;;5086745;28;20296;-77
2022/12/12 11:10:29;;;;;;;4.10;3.90;;;5.60;99.90;;;;;;5085165;28;20662;-78
2022/12/12 11:12:59;;;;;;;0.85;0.85;;;5.30;99.90;;;;;;5093544;28;20196;-78
2022/12/12 11:15:38;;;;;;;1.17;1.17;;;5.20;99.90;;;;;;5093496;28;20219;-79
2022/12/12 11:18:05;;;;;;;9.80;5.40;;;5.10;99.90;;;;;;5093736;28;20563;-76
2022/12/12 11:20:32;;;;;;;0.50;0.40;;;4.90;99.90;;;;;;5093697;28;20737;-76
2022/12/12 11:22:59;;;;;;;1.50;1.25;;;4.60;99.90;;;;;;5090124;28;20185;-78
2022/12/12 11:25:29;;;;;;;1.50;1.40;;;4.50;99.90;;;;;;5084099;28;20192;-79
2022/12/12 11:27:58;;;;;;;3.25;3.15;;;4.50;99.90;;;;;;5093798;28;20224;-78
2022/12/12 11:30:34;;;;;;;0.50;0.40;;;4.60;99.90;;;;;;5093775;28;20197;-80
2022/12/12 11:33:02;;;;;;;0.50;0.40;;;4.80;99.90;;;;;;5094817;28;20183;-77
2022/12/12 11:35:33;;;;;;;0.50;0.40;;;5.00;99.90;;;;;;5094047;28;20212;-79
2022/12/12 11:38:03;;;;;;;0.50;0.40;;;5.20;99.90;;;;;;5089581;28;20234;-79
2022/12/12 11:40:32;;;;;;;2.28;2.10;;;5.20;99.90;;;;;;5087372;28;20190;-78
2022/12/12 11:43:23;;;;;;;6.18;4.28;;;5.10;99.90;;;;;;5093808;28;20276;-78
2022/12/12 11:46:01;;;;;;;0.60;0.52;;;5.00;99.90;;;;;;5093076;28;20196;-78
2022/12/12 11:48:41;;;;;;;0.50;0.50;;;4.80;99.90;;;;;;5093463;28;20749;-78
2022/12/12 11:51:08;;;;;;;0.98;0.88;;;4.80;99.90;;;;;;5091756;28;20705;-78
2022/12/12 11:53:38;;;;;;;0.50;0.40;;;5.20;99.90;;;;;;5092790;28;20280;-78
2022/12/12 11:56:27;;;;;;;3.55;3.00;;;5.60;99.90;;;;;;5092489;28;20616;-78
2022/12/12 11:59:03;;;;;;;0.50;0.47;;;5.70;99.90;;;;;;5092889;28;20563;-78
2022/12/12 12:01:44;;;;;;;0.70;0.70;;;5.80;99.90;;;;;;5092722;28;20179;-79
2022/12/12 12:04:30;;;;;;;1.13;1.13;;;5.70;99.90;;;;;;5091586;28;20196;-78
2022/12/12 12:07:08;;;;;;;4.25;3.85;;;5.40;99.90;;;;;;5090263;28;20209;-78
2022/12/12 12:09:43;;;;;;;5.18;3.13;;;5.30;99.90;;;;;;5081612;28;20671;-75
2022/12/12 12:12:16;;;;;;;1.58;1.50;;;4.90;99.90;;;;;;5092979;28;20600;-78
2022/12/12 12:14:54;;;;;;;0.50;0.40;;;4.80;99.90;;;;;;5091886;28;20567;-73
2022/12/12 12:17:32;;;;;;;0.50;0.50;;;4.80;99.90;;;;;;5092469;28;20790;-79
2022/12/12 12:20:08;;;;;;;0.50;0.50;;;4.80;99.90;;;;;;5092766;28;20268;-78
2022/12/12 12:22:49;;;;;;;0.80;0.80;;;4.90;99.90;;;;;;5092455;28;20575;-77
2022/12/12 12:25:31;;;;;;;2.80;2.67;;;4.80;99.90;;;;;;5092143;28;20174;-76
2022/12/12 12:28:13;;;;;;;0.50;0.50;;;4.70;99.90;;;;;;5092162;28;20250;-77
2022/12/12 12:30:50;;;;;;;0.50;0.50;;;4.50;99.90;;;;;;5092035;28;20197;-77
2022/12/12 12:33:38;;;;;;;0.50;0.47;;;4.30;99.90;;;;;;5092351;28;20243;-78
2022/12/12 12:36:12;;;;;;;0.57;0.57;;;4.00;99.90;;;;;;5091518;28;20213;-78
2022/12/12 12:38:53;;;;;;;0.50;0.50;;;3.80;99.90;;;;;;5084571;28;20224;-78
2022/12/12 12:41:38;;;;;;;0.50;0.50;;;3.80;99.90;;;;;;5087872;28;20203;-77
2022/12/12 12:44:21;;;;;;;0.50;0.40;;;3.90;99.90;;;;;;5091665;28;20608;-79
2022/12/12 12:46:54;;;;;;;0.50;0.50;;;4.10;99.90;;;;;;5092044;28;20750;-76
2022/12/12 12:49:26;;;;;;;0.60;0.50;;;4.30;99.90;;;;;;5090689;28;20299;-76
2022/12/12 12:51:58;;;;;;;1.88;1.77;;;4.30;99.90;;;;;;5092592;28;20576;-76
2022/12/12 12:54:30;;;;;;;0.50;0.50;;;4.40;99.90;;;;;;5090541;28;20550;-77
2022/12/12 12:57:02;;;;;;;0.70;0.70;;;4.30;99.90;;;;;;5092262;28;20308;-77
2022/12/12 12:59:34;;;;;;;3.80;2.05;;;4.30;99.90;;;;;;5091873;28;20193;-78
2022/12/12 13:02:05;;;;;;;0.60;0.60;;;4.30;99.90;;;;;;5091932;28;20744;-78
2022/12/12 13:04:40;;;;;;;0.50;0.50;;;4.20;99.90;;;;;;5091102;28;20194;-78
2022/12/12 13:07:14;;;;;;;3.17;3.05;;;4.20;99.90;;;;;;5089122;28;20229;-78
2022/12/12 13:09:44;;;;;;;0.50;0.40;;;4.30;99.90;;;;;;5081471;28;20315;-77
2022/12/12 13:12:18;;;;;;;1.17;1.10;;;4.40;99.90;;;;;;5091826;28;20197;-76
2022/12/12 13:14:51;;;;;;;0.50;0.40;;;4.40;99.90;;;;;;5090585;28;20271;-73
2022/12/12 13:17:21;;;;;;;0.50;0.40;;;4.50;99.90;;;;;;5092339;28;20300;-77
2022/12/12 13:19:52;;;;;;;0.50;0.40;;;4.60;99.90;;;;;;5091680;28;20219;-77
2022/12/12 13:22:26;;;;;;;3.45;1.02;;;4.70;99.90;;;;;;5091770;28;20193;-76
2022/12/12 13:25:01;;;;;;;0.60;0.50;;;4.70;99.90;;;;;;5090729;28;20581;-77
2022/12/12 13:27:33;;;;;;;2.58;1.98;;;4.70;99.90;;;;;;5091252;28;20655;-77
2022/12/12 13:30:03;;;;;;;0.50;0.40;;;4.70;99.90;;;;;;5091899;28;20192;-77
2022/12/12 13:33:02;;;;;;;0.50;0.40;;;4.70;99.90;;;;;;5091603;28;20316;-77